Time;durP1;ratioP1;P1;durP2;ratioP2;P2;SDS_P1;SDS_P2;PMS_P1;PMS_P2;Temp;Humidity;BMP_temperature;BMP_pressure;BME280_temperature;BME280_humidity;BME280_pressure;Samples;Min_cycle;Max_cycle;Signal;HPM_P1;HPM_P2
2021/05/25 00:00:18;;;;;;;0.17;0.17;;;13.10;99.90;;;;;;5027735;28;20041;-76
2021/05/25 00:02:46;;;;;;;0.10;0.10;;;13.20;99.90;;;;;;5029601;28;20026;-75
2021/05/25 00:05:19;;;;;;;0.10;0.10;;;13.30;99.90;;;;;;5029779;28;20022;-76
2021/05/25 00:07:45;;;;;;;0.20;0.20;;;13.30;99.90;;;;;;5029589;28;20044;-75
2021/05/25 00:10:12;;;;;;;0.10;0.10;;;13.40;99.90;;;;;;5029818;28;20064;-75
2021/05/25 00:12:39;;;;;;;0.10;0.10;;;13.40;99.90;;;;;;5029124;28;20060;-75
2021/05/25 00:15:11;;;;;;;0.98;0.55;;;13.50;99.90;;;;;;5029637;28;20053;-76
2021/05/25 00:17:37;;;;;;;0.10;0.10;;;13.50;99.90;;;;;;5014326;28;20075;-76
2021/05/25 00:20:06;;;;;;;0.10;0.10;;;13.60;99.90;;;;;;5013161;28;20103;-75
2021/05/25 00:22:32;;;;;;;0.10;0.10;;;13.60;99.90;;;;;;5014282;28;20025;-75
2021/05/25 00:24:58;;;;;;;0.10;0.10;;;13.70;99.90;;;;;;5014892;28;20073;-76
2021/05/25 00:27:24;;;;;;;0.10;0.10;;;13.70;99.90;;;;;;5012920;28;20531;-75
2021/05/25 00:29:49;;;;;;;0.10;0.10;;;13.70;99.90;;;;;;5013621;28;20026;-75
2021/05/25 00:32:15;;;;;;;0.10;0.10;;;13.70;99.90;;;;;;5012351;28;20028;-76
2021/05/25 00:34:41;;;;;;;0.10;0.10;;;13.70;99.90;;;;;;5013889;28;20499;-76
2021/05/25 00:37:06;;;;;;;0.10;0.10;;;13.80;99.90;;;;;;5013744;28;20022;-75
2021/05/25 00:39:32;;;;;;;0.10;0.10;;;13.80;99.90;;;;;;5014608;28;20041;-75
2021/05/25 00:41:58;;;;;;;0.10;0.10;;;13.90;99.90;;;;;;5029880;28;20516;-75
2021/05/25 00:44:24;;;;;;;0.22;0.22;;;13.90;99.90;;;;;;5013830;28;20531;-76
2021/05/25 00:46:51;;;;;;;1.45;1.05;;;14.00;99.90;;;;;;5012977;28;20025;-75
2021/05/25 00:49:17;;;;;;;1.00;0.93;;;14.10;99.90;;;;;;5014184;28;20518;-75
2021/05/25 00:51:43;;;;;;;0.10;0.10;;;14.10;99.90;;;;;;5014555;28;20014;-76
2021/05/25 00:54:09;;;;;;;0.10;0.10;;;14.20;99.90;;;;;;5013468;28;20488;-76
2021/05/25 00:56:35;;;;;;;0.10;0.10;;;14.30;99.90;;;;;;5012972;28;20164;-76
2021/05/25 00:59:01;;;;;;;0.10;0.10;;;14.30;99.90;;;;;;5013443;28;20055;-75
2021/05/25 01:01:27;;;;;;;0.10;0.10;;;14.30;99.90;;;;;;5023990;28;20042;-76
2021/05/25 01:03:54;;;;;;;0.10;0.10;;;14.30;99.90;;;;;;5027939;28;20119;-76
2021/05/25 01:06:20;;;;;;;0.63;0.63;;;14.30;99.90;;;;;;5028099;28;20036;-75
2021/05/25 01:08:45;;;;;;;0.10;0.10;;;14.30;99.90;;;;;;5027722;28;20037;-78
2021/05/25 01:11:14;;;;;;;0.05;0.05;;;14.30;99.90;;;;;;5028607;28;20053;-77
2021/05/25 01:13:48;;;;;;;0.10;0.10;;;14.30;99.90;;;;;;5027725;28;20119;-78
2021/05/25 01:16:15;;;;;;;0.00;0.00;;;14.30;99.90;;;;;;5028753;28;20288;-77
2021/05/25 01:18:41;;;;;;;0.10;0.10;;;14.40;99.90;;;;;;5028038;28;20030;-77
2021/05/25 01:21:10;;;;;;;0.10;0.10;;;14.40;99.90;;;;;;5028401;28;20403;-77
2021/05/25 01:23:37;;;;;;;0.28;0.28;;;14.40;99.90;;;;;;5027541;28;20029;-77
2021/05/25 01:26:03;;;;;;;;;;;14.60;99.90;;;;;;5028936;28;20025;-77
2021/05/25 01:28:29;;;;;;;0.20;0.20;;;14.60;99.90;;;;;;5027678;28;19915;-77
2021/05/25 01:30:56;;;;;;;0.52;0.52;;;14.50;99.90;;;;;;5028364;28;20026;-78
2021/05/25 01:33:27;;;;;;;0.63;0.63;;;14.60;99.90;;;;;;5023797;28;20033;-78
2021/05/25 01:35:53;;;;;;;0.10;0.10;;;14.60;99.90;;;;;;5020047;28;20037;-78
2021/05/25 01:38:19;;;;;;;0.13;0.13;;;14.70;99.90;;;;;;5027691;28;20555;-77
2021/05/25 01:40:45;;;;;;;0.38;0.30;;;14.80;99.90;;;;;;5028221;28;20061;-78
2021/05/25 01:43:12;;;;;;;2.08;0.93;;;14.80;99.90;;;;;;5027347;28;20025;-77
2021/05/25 01:45:39;;;;;;;0.63;0.50;;;14.80;99.90;;;;;;5028025;28;20034;-78
2021/05/25 01:48:07;;;;;;;2.80;2.58;;;14.90;99.90;;;;;;5027189;28;20052;-77
2021/05/25 01:50:34;;;;;;;0.10;0.10;;;15.00;99.90;;;;;;5027934;28;20511;-78
2021/05/25 01:53:11;;;;;;;0.10;0.10;;;15.00;99.90;;;;;;5027462;28;20022;-78
2021/05/25 01:55:38;;;;;;;0.10;0.10;;;15.00;99.90;;;;;;5027904;28;20021;-78
2021/05/25 01:58:06;;;;;;;1.38;0.80;;;15.00;99.90;;;;;;5027196;28;20458;-78
2021/05/25 02:00:32;;;;;;;2.53;0.73;;;14.90;99.90;;;;;;5027622;28;20038;-77
2021/05/25 02:02:58;;;;;;;0.10;0.10;;;14.80;99.90;;;;;;5027291;28;20182;-78
2021/05/25 02:05:24;;;;;;;0.00;0.00;;;14.80;99.90;;;;;;5027831;28;20790;-78
2021/05/25 02:07:52;;;;;;;0.05;0.05;;;14.70;99.90;;;;;;5027365;28;20079;-78
2021/05/25 02:10:26;;;;;;;0.10;0.10;;;14.70;99.90;;;;;;5023753;28;20025;-77
2021/05/25 02:12:55;;;;;;;2.30;1.35;;;14.60;99.90;;;;;;5026985;28;20488;-76
2021/05/25 02:15:22;;;;;;;0.25;0.25;;;14.60;99.90;;;;;;5027367;28;20026;-76
2021/05/25 02:17:48;;;;;;;0.93;0.57;;;14.70;99.90;;;;;;5027311;28;20488;-76
2021/05/25 02:20:14;;;;;;;1.90;0.25;;;14.60;99.90;;;;;;5027414;28;20535;-77
2021/05/25 02:22:40;;;;;;;1.65;1.20;;;14.60;99.90;;;;;;5026705;28;20018;-77
2021/05/25 02:25:06;;;;;;;0.10;0.10;;;14.60;99.90;;;;;;5027348;28;20539;-76
2021/05/25 02:27:32;;;;;;;0.30;0.30;;;14.60;99.90;;;;;;5026656;28;20135;-77
2021/05/25 02:29:57;;;;;;;0.10;0.10;;;14.60;99.90;;;;;;5027380;28;20033;-75
2021/05/25 02:32:23;;;;;;;0.52;0.45;;;14.50;99.90;;;;;;5025696;28;20025;-77
2021/05/25 02:34:49;;;;;;;0.70;0.30;;;14.50;99.90;;;;;;5027291;28;20014;-76
2021/05/25 02:37:15;;;;;;;3.75;3.50;;;14.50;99.90;;;;;;5027646;28;20029;-76
2021/05/25 02:39:40;;;;;;;0.00;0.00;;;14.50;99.90;;;;;;5026159;28;20037;-75
2021/05/25 02:42:06;;;;;;;0.10;0.10;;;14.50;99.90;;;;;;5027201;28;20030;-76
2021/05/25 02:44:32;;;;;;;0.10;0.10;;;14.50;99.90;;;;;;5026656;28;20032;-75
2021/05/25 02:46:58;;;;;;;0.10;0.10;;;14.50;99.90;;;;;;5026239;28;20423;-76
2021/05/25 02:49:23;;;;;;;0.00;0.00;;;14.40;99.90;;;;;;5026928;28;20087;-75
2021/05/25 02:51:49;;;;;;;0.10;0.10;;;14.50;99.90;;;;;;5036258;28;20071;-75
2021/05/25 02:54:15;;;;;;;0.20;0.20;;;14.40;99.90;;;;;;5030264;28;20451;-76
2021/05/25 02:56:40;;;;;;;0.10;0.10;;;14.40;99.90;;;;;;5027177;28;20108;-76
2021/05/25 02:59:06;;;;;;;0.10;0.10;;;14.30;99.90;;;;;;5026171;28;20053;-76
2021/05/25 03:01:32;;;;;;;0.10;0.10;;;14.30;99.90;;;;;;5025811;28;20138;-76
2021/05/25 03:03:58;;;;;;;0.00;0.00;;;14.30;99.90;;;;;;5026672;28;20025;-76
2021/05/25 03:06:24;;;;;;;0.10;0.10;;;14.30;99.90;;;;;;5025743;28;20021;-76
2021/05/25 03:08:49;;;;;;;0.10;0.10;;;14.30;99.90;;;;;;5026551;28;20144;-76
2021/05/25 03:11:15;;;;;;;0.10;0.10;;;14.30;99.90;;;;;;5025737;28;20017;-76
2021/05/25 03:13:41;;;;;;;0.10;0.10;;;14.30;99.90;;;;;;5026395;28;20029;-76
2021/05/25 03:16:06;;;;;;;0.10;0.10;;;14.30;99.90;;;;;;5027262;28;20418;-75
2021/05/25 03:18:32;;;;;;;0.10;0.10;;;14.30;99.90;;;;;;5026632;28;20079;-76
2021/05/25 03:20:58;;;;;;;0.10;0.10;;;14.30;99.90;;;;;;5028783;28;20048;-76
2021/05/25 03:23:23;;;;;;;0.00;0.00;;;14.30;99.90;;;;;;5037544;28;20124;-76
2021/05/25 03:25:51;;;;;;;0.10;0.10;;;14.40;99.90;;;;;;5025702;28;20488;-75
2021/05/25 03:28:16;;;;;;;;;;;14.30;99.90;;;;;;5026754;28;20029;-75
2021/05/25 03:30:43;;;;;;;0.10;0.10;;;14.30;99.90;;;;;;5026881;28;19909;-75
2021/05/25 03:33:10;;;;;;;0.10;0.10;;;14.30;99.90;;;;;;5026171;28;20025;-75
2021/05/25 03:35:36;;;;;;;0.10;0.10;;;14.30;99.90;;;;;;5026588;28;20025;-75
2021/05/25 03:38:03;;;;;;;0.10;0.10;;;14.30;99.90;;;;;;5026241;28;20029;-75
2021/05/25 03:40:29;;;;;;;0.10;0.10;;;14.30;99.90;;;;;;5030503;28;20040;-76
2021/05/25 03:42:55;;;;;;;0.10;0.10;;;14.30;99.90;;;;;;5029688;28;20034;-75
2021/05/25 03:45:23;;;;;;;0.10;0.10;;;14.30;99.90;;;;;;5030023;28;20029;-75
2021/05/25 03:47:49;;;;;;;0.00;0.00;;;14.40;99.90;;;;;;5030010;28;20035;-75
2021/05/25 03:50:16;;;;;;;0.10;0.10;;;14.40;99.90;;;;;;5030223;28;20075;-75
2021/05/25 03:52:45;;;;;;;0.40;0.40;;;14.40;99.90;;;;;;5029737;28;20056;-75
2021/05/25 04:00:36;;;;;;;0.00;0.00;;;14.30;99.90;;;;;;5029936;28;20087;-76
2021/05/25 04:03:02;;;;;;;0.03;0.03;;;14.30;99.90;;;;;;5029452;28;20037;-76
2021/05/25 04:05:28;;;;;;;0.10;0.10;;;14.40;99.90;;;;;;5030192;28;20487;-77
2021/05/25 04:07:53;;;;;;;0.20;0.20;;;14.40;99.90;;;;;;5029264;28;20025;-76
2021/05/25 04:10:19;;;;;;;0.10;0.10;;;14.40;99.90;;;;;;5030105;28;20559;-76
2021/05/25 04:12:45;;;;;;;0.15;0.15;;;14.40;99.90;;;;;;5028968;28;20120;-77
2021/05/25 04:15:11;;;;;;;2.03;1.10;;;14.40;99.90;;;;;;5029794;28;20396;-76
2021/05/25 04:17:40;;;;;;;0.43;0.25;;;14.40;99.90;;;;;;5027956;28;20026;-76
2021/05/25 04:20:07;;;;;;;0.10;0.10;;;14.50;99.90;;;;;;5029797;28;20033;-76
2021/05/25 04:22:32;;;;;;;0.10;0.10;;;14.50;99.90;;;;;;5041955;28;20025;-77
2021/05/25 04:24:58;;;;;;;0.10;0.10;;;14.60;99.90;;;;;;5029305;28;20303;-77
2021/05/25 04:27:24;;;;;;;0.10;0.10;;;14.70;99.90;;;;;;5028998;28;20033;-76
2021/05/25 04:29:49;;;;;;;0.00;0.00;;;14.80;99.90;;;;;;5029522;28;20025;-78
2021/05/25 04:32:15;;;;;;;0.10;0.10;;;14.80;99.90;;;;;;5029513;28;20025;-75
2021/05/25 04:34:40;;;;;;;0.50;0.50;;;14.80;99.90;;;;;;5029073;28;20028;-77
2021/05/25 04:37:06;;;;;;;0.05;0.05;;;14.80;99.90;;;;;;5016068;28;20404;-77
2021/05/25 04:39:32;;;;;;;0.10;0.10;;;14.80;99.90;;;;;;5028508;28;20026;-78
2021/05/25 04:41:57;;;;;;;1.27;1.17;;;14.70;99.90;;;;;;5023241;28;20044;-78
2021/05/25 04:44:23;;;;;;;0.10;0.10;;;14.70;99.90;;;;;;5019632;28;20032;-77
2021/05/25 04:46:49;;;;;;;0.10;0.10;;;14.70;99.90;;;;;;5009064;28;20030;-78
2021/05/25 04:49:14;;;;;;;0.10;0.10;;;14.80;99.90;;;;;;5024682;28;20033;-77
2021/05/25 04:51:40;;;;;;;0.00;0.00;;;14.80;99.90;;;;;;5036304;28;20056;-78
2021/05/25 04:54:06;;;;;;;0.10;0.10;;;14.80;99.90;;;;;;5032540;28;20037;-77
2021/05/25 04:56:34;;;;;;;0.03;0.03;;;14.80;99.90;;;;;;5028979;28;20116;-78
2021/05/25 04:59:00;;;;;;;0.10;0.10;;;14.80;99.90;;;;;;5028146;28;20140;-78
2021/05/25 05:01:27;;;;;;;0.10;0.10;;;14.90;99.90;;;;;;5029038;28;20439;-78
2021/05/25 05:03:54;;;;;;;0.10;0.10;;;15.10;99.90;;;;;;5019612;28;20026;-78
2021/05/25 05:06:19;;;;;;;0.10;0.10;;;15.10;99.90;;;;;;5024580;28;20025;-79
2021/05/25 05:08:45;;;;;;;0.00;0.00;;;15.20;99.90;;;;;;5028197;28;20056;-77
2021/05/25 05:11:12;;;;;;;0.03;0.03;;;15.40;99.90;;;;;;5029097;28;20037;-79
2021/05/25 05:13:38;;;;;;;0.10;0.10;;;15.50;99.90;;;;;;5027663;28;20091;-78
2021/05/25 05:16:04;;;;;;;0.00;0.00;;;15.40;99.90;;;;;;5028836;28;20029;-78
2021/05/25 05:18:30;;;;;;;0.10;0.10;;;15.60;99.90;;;;;;5027858;28;20495;-79
2021/05/25 05:20:55;;;;;;;0.10;0.10;;;15.80;99.90;;;;;;5026856;28;20086;-79
2021/05/25 05:23:21;;;;;;;0.10;0.10;;;15.90;99.90;;;;;;5026726;28;20499;-77
2021/05/25 05:25:47;;;;;;;0.10;0.10;;;16.10;99.90;;;;;;5028586;28;20411;-78
2021/05/25 05:28:13;;;;;;;0.10;0.10;;;16.50;99.90;;;;;;5027966;28;20025;-82
2021/05/25 05:30:39;;;;;;;0.10;0.10;;;16.50;99.90;;;;;;5026670;28;20630;-83
2021/05/25 05:33:06;;;;;;;0.10;0.10;;;16.50;99.90;;;;;;5028089;28;20116;-80
2021/05/25 05:35:32;;;;;;;0.10;0.10;;;16.30;99.90;;;;;;5027060;28;20034;-82
2021/05/25 05:37:59;;;;;;;0.10;0.10;;;16.70;99.90;;;;;;5027739;28;20432;-79
2021/05/25 05:40:25;;;;;;;0.10;0.10;;;16.90;99.90;;;;;;5028306;28;20121;-76
2021/05/25 05:42:51;;;;;;;0.20;0.20;;;16.60;99.90;;;;;;5027015;28;20503;-77
2021/05/25 05:45:19;;;;;;;0.10;0.10;;;16.50;99.90;;;;;;5028443;28;20032;-82
2021/05/25 05:47:45;;;;;;;0.10;0.10;;;16.60;99.90;;;;;;5027735;28;20037;-85
2021/05/25 05:50:11;;;;;;;0.10;0.10;;;16.80;99.90;;;;;;5028854;28;20514;-81
2021/05/25 05:52:38;;;;;;;0.47;0.47;;;16.90;99.90;;;;;;5040509;28;20025;-80
2021/05/25 05:55:05;;;;;;;0.10;0.10;;;16.90;99.90;;;;;;5027976;28;20030;-81
2021/05/25 05:57:31;;;;;;;0.05;0.05;;;16.70;99.90;;;;;;5026766;28;20480;-81
2021/05/25 05:59:57;;;;;;;0.10;0.10;;;16.70;99.90;;;;;;5026106;28;20047;-80
2021/05/25 06:02:23;;;;;;;0.10;0.10;;;16.70;99.90;;;;;;5027643;28;20033;-85
2021/05/25 06:04:48;;;;;;;0.10;0.10;;;16.80;99.90;;;;;;5028710;28;20096;-87
2021/05/25 06:07:14;;;;;;;0.10;0.10;;;17.00;99.90;;;;;;5027917;28;20132;-86
2021/05/25 06:09:40;;;;;;;0.00;0.00;;;17.00;99.90;;;;;;5028503;28;20025;-85
2021/05/25 06:12:06;;;;;;;0.10;0.10;;;17.10;99.90;;;;;;5029798;28;20140;-86
2021/05/25 06:14:32;;;;;;;0.10;0.10;;;17.20;99.90;;;;;;5029214;28;20036;-89
2021/05/25 06:16:59;;;;;;;0.10;0.10;;;17.20;99.90;;;;;;5030062;28;20108;-84
2021/05/25 06:19:24;;;;;;;;;;;17.50;99.90;;;;;;5028339;28;20022;-84
2021/05/25 06:21:50;;;;;;;0.10;0.10;;;17.70;99.90;;;;;;5035526;28;20251;-83
2021/05/25 06:24:16;;;;;;;0.10;0.10;;;17.90;99.90;;;;;;5030162;28;20091;-83
2021/05/25 06:26:42;;;;;;;0.10;0.10;;;17.90;99.90;;;;;;5026974;28;20076;-83
2021/05/25 06:29:08;;;;;;;0.10;0.10;;;17.80;99.90;;;;;;5017518;28;20062;-89
2021/05/25 06:31:34;;;;;;;0.10;0.10;;;17.90;99.90;;;;;;5011911;28;20036;-89
2021/05/25 06:34:00;;;;;;;0.10;0.10;;;17.90;99.90;;;;;;5020636;28;20026;-81
2021/05/25 06:36:25;;;;;;;0.10;0.10;;;18.00;99.90;;;;;;5026931;28;20053;-85
2021/05/25 06:38:51;;;;;;;0.10;0.10;;;18.30;99.90;;;;;;5028198;28;20033;-82
2021/05/25 06:41:17;;;;;;;0.10;0.10;;;18.50;99.90;;;;;;5026782;28;20432;-84
2021/05/25 06:43:43;;;;;;;0.10;0.10;;;18.60;99.90;;;;;;5027358;28;20083;-85
2021/05/25 06:46:08;;;;;;;0.10;0.10;;;18.80;99.90;;;;;;5027466;28;20025;-81
2021/05/25 06:48:34;;;;;;;0.10;0.10;;;19.00;99.90;;;;;;5026683;28;20381;-83
2021/05/25 06:51:04;;;;;;;0.10;0.10;;;19.10;99.90;;;;;;5026167;28;20422;-82
2021/05/25 06:53:30;;;;;;;0.10;0.10;;;19.10;99.90;;;;;;5026943;28;20129;-81
2021/05/25 06:55:56;;;;;;;0.20;0.20;;;19.10;99.90;;;;;;5027582;28;20021;-82
2021/05/25 06:58:22;;;;;;;0.10;0.10;;;19.10;99.90;;;;;;5026798;28;20049;-81
2021/05/25 07:00:47;;;;;;;0.10;0.10;;;19.10;99.90;;;;;;5018689;28;20034;-81
2021/05/25 07:03:13;;;;;;;0.10;0.10;;;19.10;99.90;;;;;;5026387;28;20365;-82
2021/05/25 07:05:39;;;;;;;0.10;0.10;;;19.10;99.90;;;;;;5025849;28;20121;-81
2021/05/25 07:08:04;;;;;;;0.10;0.10;;;19.30;99.90;;;;;;5026689;28;20045;-81
2021/05/25 07:10:30;;;;;;;0.10;0.10;;;19.20;99.90;;;;;;5030034;28;20029;-81
2021/05/25 07:12:56;;;;;;;0.20;0.20;;;19.20;99.90;;;;;;5030375;28;20079;-81
2021/05/25 07:15:22;;;;;;;0.10;0.10;;;18.90;99.90;;;;;;5017558;28;20548;-81
2021/05/25 07:18:07;;;;;;;0.30;0.30;;;18.60;99.90;;;;;;5018991;28;20115;-81
2021/05/25 07:20:33;;;;;;;0.10;0.10;;;18.30;99.90;;;;;;5029208;28;20029;-81
2021/05/25 07:22:59;;;;;;;1.65;1.15;;;18.10;99.90;;;;;;5042934;28;20079;-81
2021/05/25 07:25:27;;;;;;;0.13;0.13;;;18.20;99.90;;;;;;5015694;28;20079;-79
2021/05/25 07:27:54;;;;;;;0.10;0.10;;;18.30;99.90;;;;;;5029821;28;20089;-81
2021/05/25 07:30:20;;;;;;;1.35;0.55;;;18.30;99.90;;;;;;5018698;28;20073;-80
2021/05/25 07:32:46;;;;;;;0.45;0.45;;;18.50;99.90;;;;;;5027840;28;20072;-80
2021/05/25 07:35:13;;;;;;;0.20;0.20;;;18.00;99.90;;;;;;5030150;28;20033;-80
2021/05/25 07:37:39;;;;;;;0.10;0.10;;;18.10;99.90;;;;;;5028543;28;20728;-80
2021/05/25 07:40:07;;;;;;;0.30;0.30;;;18.20;99.90;;;;;;5029027;28;20128;-79
2021/05/25 07:42:33;;;;;;;2.05;0.90;;;18.50;99.90;;;;;;5028161;28;20033;-80
2021/05/25 07:44:59;;;;;;;0.55;0.47;;;18.50;99.90;;;;;;5023199;28;20551;-80
2021/05/25 07:47:26;;;;;;;0.35;0.35;;;18.40;99.90;;;;;;5021467;28;20116;-80
2021/05/25 07:49:52;;;;;;;1.85;1.42;;;18.30;99.90;;;;;;5030584;28;20088;-79
2021/05/25 07:52:18;;;;;;;1.77;1.13;;;18.20;99.90;;;;;;5030679;28;20513;-80
2021/05/25 07:54:44;;;;;;;0.47;0.47;;;17.80;99.90;;;;;;5028925;28;20038;-80
2021/05/25 07:57:10;;;;;;;7.38;1.98;;;17.80;99.90;;;;;;5028995;28;20033;-78
2021/05/25 07:59:37;;;;;;;1.67;1.30;;;18.00;99.90;;;;;;5029421;28;20047;-78
2021/05/25 08:02:03;;;;;;;0.32;0.32;;;17.60;99.90;;;;;;5030159;28;20307;-79
2021/05/25 08:04:29;;;;;;;0.20;0.20;;;17.60;99.90;;;;;;5029212;28;20037;-79
2021/05/25 08:06:55;;;;;;;0.70;0.70;;;17.80;99.90;;;;;;5030024;28;20271;-79
2021/05/25 08:09:21;;;;;;;0.10;0.10;;;17.90;99.90;;;;;;5029496;28;20037;-79
2021/05/25 08:11:47;;;;;;;0.80;0.80;;;18.10;99.90;;;;;;5029919;28;20149;-79
2021/05/25 08:14:12;;;;;;;1.75;1.40;;;18.20;99.90;;;;;;5027802;28;20553;-82
2021/05/25 08:16:41;;;;;;;0.43;0.43;;;18.10;99.90;;;;;;5028094;28;20068;-78
2021/05/25 08:21:39;;;;;;;0.28;0.28;;;18.30;99.90;;;;;;5036019;28;20029;-78
2021/05/25 08:24:09;;;;;;;0.50;0.50;;;18.40;99.90;;;;;;5033270;28;20044;-78
2021/05/25 08:26:36;;;;;;;0.63;0.55;;;18.60;99.90;;;;;;5027828;28;20112;-80
2021/05/25 08:29:02;;;;;;;;;;;18.60;99.90;;;;;;5029550;28;20061;-78
2021/05/25 08:31:28;;;;;;;0.32;0.32;;;18.50;99.90;;;;;;5027202;28;19912;-78
2021/05/25 08:33:54;;;;;;;0.10;0.10;;;18.60;99.90;;;;;;5029122;28;20030;-79
2021/05/25 08:36:20;;;;;;;0.30;0.30;;;18.80;99.90;;;;;;5029635;28;20060;-78
2021/05/25 08:38:46;;;;;;;0.30;0.30;;;19.20;99.90;;;;;;5028827;28;20029;-79
2021/05/25 08:41:12;;;;;;;0.50;0.50;;;19.20;99.90;;;;;;5016397;28;20488;-79
2021/05/25 08:43:38;;;;;;;0.10;0.10;;;19.10;99.90;;;;;;5026395;28;20030;-79
2021/05/25 08:46:04;;;;;;;2.67;0.77;;;19.10;99.90;;;;;;5016311;28;20030;-79
2021/05/25 08:48:30;;;;;;;0.20;0.20;;;19.40;99.90;;;;;;5029688;28;20056;-80
2021/05/25 08:51:01;;;;;;;2.23;1.50;;;19.00;99.90;;;;;;5032042;28;20079;-81
2021/05/25 08:53:28;;;;;;;0.20;0.20;;;19.00;99.90;;;;;;5038623;28;20033;-80
2021/05/25 08:55:55;;;;;;;0.10;0.10;;;19.10;99.90;;;;;;5028548;28;20483;-80
2021/05/25 08:58:22;;;;;;;0.10;0.10;;;19.20;99.90;;;;;;5030132;28;20144;-79
2021/05/25 09:00:52;;;;;;;0.10;0.10;;;19.20;99.90;;;;;;5023714;28;20048;-80
2021/05/25 09:03:18;;;;;;;0.10;0.10;;;18.90;99.90;;;;;;5030037;28;20443;-79
2021/05/25 09:05:57;;;;;;;0.10;0.10;;;18.70;99.90;;;;;;5028523;28;20108;-78
2021/05/25 09:08:23;;;;;;;0.10;0.10;;;18.90;99.90;;;;;;5028501;28;20037;-79
2021/05/25 09:10:51;;;;;;;1.23;1.10;;;18.70;99.90;;;;;;5027959;28;20037;-80
2021/05/25 09:13:24;;;;;;;0.10;0.10;;;18.50;99.90;;;;;;5028386;28;20373;-79
2021/05/25 09:15:54;;;;;;;0.90;0.85;;;18.40;99.90;;;;;;5023307;28;20029;-80
2021/05/25 09:18:29;;;;;;;0.30;0.30;;;18.10;99.90;;;;;;5027639;28;20225;-79
2021/05/25 09:21:05;;;;;;;0.32;0.32;;;18.00;99.90;;;;;;5024336;28;20044;-79
2021/05/25 09:23:42;;;;;;;0.30;0.30;;;17.90;99.90;;;;;;5022446;28;20025;-80
2021/05/25 09:26:11;;;;;;;0.47;0.47;;;17.90;99.90;;;;;;5026235;28;20095;-80
2021/05/25 09:29:17;;;;;;;1.27;0.85;;;17.70;99.90;;;;;;5027128;28;20029;-80
2021/05/25 09:31:46;;;;;;;0.90;0.25;;;17.80;99.90;;;;;;4986192;28;20157;-81
2021/05/25 09:34:14;;;;;;;0.73;0.40;;;18.00;99.90;;;;;;4960565;28;20126;-82
2021/05/25 09:37:05;;;;;;;0.38;0.15;;;18.10;99.90;;;;;;5002610;28;20056;-81
2021/05/25 09:39:48;;;;;;;0.20;0.20;;;18.10;99.90;;;;;;5025802;28;20121;-82
2021/05/25 09:42:17;;;;;;;0.55;0.55;;;18.10;99.90;;;;;;5028365;28;20041;-82
2021/05/25 09:45:05;;;;;;;1.48;0.63;;;18.40;99.90;;;;;;5019710;28;20029;-83
2021/05/25 09:47:54;;;;;;;0.10;0.10;;;18.70;99.90;;;;;;5027821;28;20030;-84
2021/05/25 09:50:25;;;;;;;0.10;0.10;;;19.20;99.90;;;;;;5019464;28;20029;-87
2021/05/25 09:53:10;;;;;;;0.52;0.43;;;19.90;99.90;;;;;;5032760;28;20025;-85
2021/05/25 09:55:56;;;;;;;0.10;0.10;;;20.10;99.90;;;;;;5022380;28;20026;-84
2021/05/25 09:58:34;;;;;;;1.08;0.73;;;20.70;99.90;;;;;;5027923;28;20049;-85
2021/05/25 10:01:01;;;;;;;0.10;0.10;;;20.90;99.90;;;;;;5019498;28;20455;-85
2021/05/25 10:03:32;;;;;;;0.55;0.55;;;21.30;99.90;;;;;;5018349;28;20022;-86
2021/05/25 10:06:00;;;;;;;0.10;0.10;;;21.40;99.90;;;;;;5028267;28;20479;-83
2021/05/25 10:08:26;;;;;;;;;;;21.70;99.90;;;;;;5026384;28;20102;-83
2021/05/25 10:10:54;;;;;;;0.10;0.10;;;22.10;99.90;;;;;;5023961;28;19912;-83
2021/05/25 10:13:21;;;;;;;0.10;0.10;;;22.30;99.90;;;;;;5025211;28;20116;-81
2021/05/25 10:15:49;;;;;;;0.63;0.63;;;22.20;99.90;;;;;;5017850;28;20030;-82
2021/05/25 10:20:45;;;;;;;0.10;0.10;;;21.50;99.90;;;;;;5022716;28;20033;-83
2021/05/25 10:23:12;;;;;;;0.10;0.10;;;21.50;99.90;;;;;;5014239;28;20036;-84
2021/05/25 10:25:40;;;;;;;0.10;0.10;;;21.70;99.90;;;;;;5023353;28;20120;-83
2021/05/25 10:28:11;;;;;;;0.10;0.10;;;22.00;99.90;;;;;;5014324;28;20021;-82
2021/05/25 10:30:44;;;;;;;0.15;0.15;;;22.30;99.90;;;;;;5027081;28;20452;-83
2021/05/25 10:33:09;;;;;;;0.10;0.10;;;22.40;99.90;;;;;;5026888;28;20079;-83
2021/05/25 10:36:02;;;;;;;0.25;0.25;;;22.20;99.90;;;;;;5014312;28;20034;-84
2021/05/25 10:38:43;;;;;;;0.13;0.13;;;22.00;99.90;;;;;;5018882;28;20037;-83
2021/05/25 10:41:09;;;;;;;0.13;0.13;;;21.70;99.90;;;;;;5026128;28;20376;-83
2021/05/25 10:43:34;;;;;;;0.10;0.10;;;21.60;99.90;;;;;;5026949;28;20036;-82
2021/05/25 10:46:12;;;;;;;0.10;0.10;;;21.40;99.90;;;;;;5029296;28;20041;-84
2021/05/25 10:48:57;;;;;;;0.20;0.20;;;21.60;99.90;;;;;;5026984;28;20094;-83
2021/05/25 10:51:51;;;;;;;0.20;0.20;;;21.80;99.90;;;;;;5023208;28;20025;-85
2021/05/25 10:54:46;;;;;;;0.22;0.22;;;22.10;99.90;;;;;;5029278;28;20029;-84
2021/05/25 10:57:40;;;;;;;0.15;0.15;;;21.80;99.90;;;;;;5009500;28;20029;-84
2021/05/25 11:00:20;;;;;;;0.20;0.20;;;21.60;99.90;;;;;;5027335;28;20033;-82
2021/05/25 11:02:48;;;;;;;0.20;0.20;;;21.80;99.90;;;;;;5027236;28;20025;-86
2021/05/25 11:05:26;;;;;;;0.20;0.20;;;21.90;99.90;;;;;;5029119;28;20102;-85
2021/05/25 11:07:53;;;;;;;0.50;0.50;;;21.90;99.90;;;;;;5023554;28;20032;-83
2021/05/25 11:10:28;;;;;;;1.98;0.70;;;21.40;99.90;;;;;;5025518;28;20065;-81
2021/05/25 11:13:16;;;;;;;0.20;0.20;;;21.10;99.90;;;;;;5015212;28;20056;-82
2021/05/25 11:16:20;;;;;;;0.20;0.20;;;21.20;99.90;;;;;;5022715;28;20033;-81
2021/05/25 11:19:09;;;;;;;3.83;1.08;;;21.30;99.90;;;;;;5025185;28;20152;-80
2021/05/25 11:24:33;;;;;;;0.50;0.50;;;21.60;99.90;;;;;;5029559;28;20029;-79
2021/05/25 11:27:12;;;;;;;1.15;0.88;;;21.60;99.90;;;;;;5010560;28;20120;-81
2021/05/25 11:29:47;;;;;;;1.20;0.75;;;21.50;99.90;;;;;;5018336;28;20025;-80
2021/05/25 11:32:17;;;;;;;0.32;0.32;;;21.20;99.90;;;;;;5010552;28;20029;-80
2021/05/25 11:34:43;;;;;;;2.35;0.47;;;20.50;99.90;;;;;;5029707;28;20050;-79
2021/05/25 11:37:18;;;;;;;0.10;0.10;;;19.90;99.90;;;;;;5030663;28;20105;-80
2021/05/25 11:39:46;;;;;;;2.13;0.85;;;19.80;99.90;;;;;;5028721;28;20128;-80
2021/05/25 11:42:12;;;;;;;0.35;0.32;;;20.30;99.90;;;;;;5029147;28;20515;-80
2021/05/25 11:44:41;;;;;;;0.27;0.27;;;20.30;99.90;;;;;;5029894;28;20032;-81
2021/05/25 11:47:06;;;;;;;10.18;5.60;;;20.50;99.90;;;;;;5016641;28;20522;-83
2021/05/25 11:49:35;;;;;;;0.22;0.22;;;20.80;99.90;;;;;;5018508;28;20052;-82
2021/05/25 11:52:39;;;;;;;6.78;2.85;;;21.40;99.90;;;;;;5033190;28;20436;-82
2021/05/25 11:55:09;;;;;;;2.92;1.65;;;22.20;99.90;;;;;;5029019;28;20038;-81
2021/05/25 11:57:46;;;;;;;0.10;0.10;;;22.50;99.20;;;;;;5018740;28;20508;-82
2021/05/25 12:00:17;;;;;;;0.15;0.15;;;22.70;98.20;;;;;;5016152;28;20033;-81
2021/05/25 12:02:51;;;;;;;1.13;1.13;;;22.80;99.20;;;;;;5028926;28;20381;-82
2021/05/25 12:05:23;;;;;;;1.20;0.88;;;23.50;98.70;;;;;;5023054;28;20056;-81
2021/05/25 12:07:54;;;;;;;1.27;0.82;;;25.00;93.00;;;;;;5026682;28;20029;-81
2021/05/25 12:10:21;;;;;;;0.77;0.60;;;26.50;89.10;;;;;;5025069;28;20025;-82
2021/05/25 12:12:50;;;;;;;0.40;0.40;;;27.60;86.20;;;;;;5027405;28;20527;-78
2021/05/25 12:15:16;;;;;;;1.80;0.65;;;28.80;75.60;;;;;;5018253;28;20033;-81
2021/05/25 12:17:53;;;;;;;0.55;0.55;;;30.00;74.10;;;;;;5021397;28;20025;-81
2021/05/25 12:20:20;;;;;;;1.83;0.68;;;31.60;65.50;;;;;;5025759;28;20041;-82
2021/05/25 12:22:49;;;;;;;2.67;1.08;;;31.00;61.00;;;;;;5040490;28;20033;-80
2021/05/25 12:25:20;;;;;;;8.20;0.90;;;30.70;61.70;;;;;;5028042;28;20032;-81
2021/05/25 12:27:48;;;;;;;0.63;0.63;;;29.00;63.10;;;;;;5012839;28;20045;-81
2021/05/25 12:30:16;;;;;;;1.42;0.95;;;28.20;70.30;;;;;;5027387;28;20041;-80
2021/05/25 12:32:49;;;;;;;0.95;0.88;;;30.00;65.60;;;;;;5027599;28;20013;-80
2021/05/25 12:35:19;;;;;;;1.13;0.93;;;32.30;57.00;;;;;;5027996;28;20519;-84
2021/05/25 12:37:47;;;;;;;0.30;0.30;;;31.40;56.50;;;;;;5029278;28;20046;-84
2021/05/25 12:40:13;;;;;;;0.30;0.30;;;31.20;58.40;;;;;;5029316;28;20060;-81
2021/05/25 12:42:41;;;;;;;;;;;30.40;58.10;;;;;;5029421;28;20040;-83
2021/05/25 12:45:15;;;;;;;2.33;0.60;;;30.80;58.10;;;;;;5029110;28;19905;-81
2021/05/25 12:47:54;;;;;;;0.40;0.40;;;34.00;51.80;;;;;;5028757;28;20973;-82
2021/05/25 12:50:34;;;;;;;1.35;1.25;;;33.70;50.80;;;;;;5023964;28;20045;-83
2021/05/25 12:53:07;;;;;;;3.92;3.15;;;33.20;50.70;;;;;;5041227;28;20036;-81
2021/05/25 12:55:38;;;;;;;3.35;0.73;;;33.20;51.00;;;;;;5030556;28;20025;-81
2021/05/25 12:58:07;;;;;;;0.28;0.28;;;32.80;51.80;;;;;;5041315;28;20152;-82
2021/05/25 13:00:41;;;;;;;2.33;0.93;;;30.90;54.20;;;;;;5029046;28;20110;-82
2021/05/25 13:03:25;;;;;;;2.15;0.40;;;27.90;61.80;;;;;;5028061;28;20098;-81
2021/05/25 13:05:52;;;;;;;0.10;0.10;;;25.70;68.00;;;;;;5020991;28;20033;-86
2021/05/25 13:08:25;;;;;;;1.00;0.65;;;25.50;73.90;;;;;;5028397;28;20037;-84